createdAt,value
2022-10-02T00:01:35.111Z,50.10
2022-10-02T00:06:44.692Z,50.20
2022-10-02T00:11:53.683Z,50.30
2022-10-02T00:16:59.103Z,50.30
2022-10-02T00:22:37.671Z,50.40
2022-10-02T00:28:01.043Z,50.50
2022-10-02T00:33:15.560Z,50.50
2022-10-02T00:38:31.322Z,50.50
2022-10-02T00:43:43.699Z,50.50
2022-10-02T00:48:59.209Z,50.60
2022-10-02T00:54:14.053Z,50.60
2022-10-02T00:59:41.910Z,50.70
2022-10-02T01:04:48.050Z,50.70
2022-10-02T01:09:51.371Z,50.70
2022-10-02T01:14:55.952Z,50.70
2022-10-02T01:20:04.456Z,50.80
2022-10-02T01:25:09.606Z,50.80
2022-10-02T01:30:15.869Z,50.80
2022-10-02T01:35:21.415Z,50.80
2022-10-02T01:40:28.652Z,50.90
2022-10-02T01:45:44.985Z,50.90
2022-10-02T01:50:58.202Z,50.90
2022-10-02T01:56:12.122Z,51.00
2022-10-02T02:01:24.238Z,51.00
2022-10-02T02:06:32.028Z,50.90
2022-10-02T02:11:39.844Z,51.00
2022-10-02T02:16:45.064Z,51.00
2022-10-02T02:21:53.924Z,51.10
2022-10-02T02:27:02.295Z,51.20
2022-10-02T02:32:09.605Z,51.20
2022-10-02T02:37:19.242Z,51.20
2022-10-02T02:42:26.542Z,51.00
2022-10-02T02:47:34.215Z,51.10
2022-10-02T02:52:42.834Z,51.20
2022-10-02T02:57:54.671Z,51.20
2022-10-02T03:02:58.541Z,51.20
2022-10-02T03:08:04.912Z,51.20
2022-10-02T03:13:29.451Z,51.20
2022-10-02T03:18:55.852Z,51.20
2022-10-02T03:24:06.941Z,51.20
2022-10-02T03:29:16.889Z,51.80
2022-10-02T03:34:20.331Z,51.20
2022-10-02T03:39:26.005Z,51.20
2022-10-02T03:44:30.760Z,51.40
2022-10-02T03:49:33.834Z,51.30
2022-10-02T03:54:37.604Z,51.30
2022-10-02T03:59:47.677Z,51.30
2022-10-02T04:04:55.558Z,51.40
2022-10-02T04:10:10.915Z,51.30
2022-10-02T04:15:23.237Z,51.30
2022-10-02T04:20:31.663Z,51.40
2022-10-02T04:25:39.753Z,51.30
2022-10-02T04:30:44.248Z,51.40
2022-10-02T04:35:57.987Z,51.40
2022-10-02T04:41:12.752Z,51.40
2022-10-02T04:46:33.154Z,51.50
2022-10-02T04:51:52.555Z,51.40
2022-10-02T04:57:16.896Z,51.60
2022-10-02T05:02:34.236Z,51.50
2022-10-02T05:07:56.317Z,51.50
2022-10-02T05:13:13.172Z,51.60
2022-10-02T05:18:45.972Z,51.60
2022-10-02T05:24:11.285Z,51.70
2022-10-02T05:29:47.973Z,51.60
2022-10-02T05:35:08.181Z,51.70
2022-10-02T05:40:19.202Z,51.70
2022-10-02T05:45:28.327Z,51.60
2022-10-02T05:50:36.288Z,51.70
2022-10-02T05:55:44.942Z,51.80
2022-10-02T06:00:53.209Z,51.80
2022-10-02T06:06:02.116Z,51.70
2022-10-02T06:11:12.824Z,51.80
2022-10-02T06:16:21.647Z,51.80
2022-10-02T06:21:32.493Z,51.80
2022-10-02T06:26:45.099Z,51.80
2022-10-02T06:31:54.618Z,51.90
2022-10-02T06:37:20.701Z,51.90
2022-10-02T06:42:34.369Z,51.90
2022-10-02T06:47:54.579Z,52.00
2022-10-02T06:53:06.732Z,52.40
2022-10-02T06:58:24.700Z,51.90
2022-10-02T07:03:40.964Z,51.80
2022-10-02T07:09:25.797Z,51.80
2022-10-02T07:14:38.954Z,51.90
2022-10-02T07:20:19.857Z,51.80
2022-10-02T07:25:40.983Z,51.90
2022-10-02T07:30:55.374Z,51.90
2022-10-02T07:36:05.079Z,52.00
2022-10-02T07:41:20.705Z,52.20
2022-10-02T07:46:32.742Z,52.30
2022-10-02T07:51:50.081Z,52.20
2022-10-02T07:57:00.168Z,52.40
2022-10-02T08:02:14.938Z,52.50
2022-10-02T08:07:18.068Z,52.40
2022-10-02T08:12:28.897Z,52.30
2022-10-02T08:17:39.092Z,52.50
2022-10-02T08:22:47.379Z,52.70
2022-10-02T08:27:58.699Z,52.70
2022-10-02T08:33:01.813Z,52.80
2022-10-02T08:38:17.226Z,53.00
2022-10-02T08:43:53.935Z,52.80
2022-10-02T08:49:34.479Z,53.50
2022-10-02T08:55:13.094Z,53.30
2022-10-02T09:00:25.329Z,53.10
2022-10-02T09:05:51.988Z,55.30
2022-10-02T09:11:42.121Z,54.40
2022-10-02T09:17:08.948Z,54.50
2022-10-02T09:22:37.460Z,54.30
2022-10-02T09:28:08.996Z,54.50
2022-10-02T09:33:57.581Z,56.50
2022-10-02T09:39:35.124Z,57.20
2022-10-02T09:45:02.100Z,57.10
2022-10-02T09:50:54.048Z,58.00
2022-10-02T09:56:39.569Z,57.70
2022-10-02T10:02:21.310Z,58.60
2022-10-02T10:07:55.034Z,58.30
2022-10-02T10:13:22.285Z,58.70
2022-10-02T10:18:51.624Z,58.80
2022-10-02T10:24:22.161Z,59.40
2022-10-02T10:29:53.993Z,58.90
2022-10-02T10:35:24.339Z,59.30
2022-10-02T10:40:36.084Z,59.80
2022-10-02T10:46:02.642Z,59.70
2022-10-02T10:51:21.372Z,59.90
2022-10-02T10:56:37.166Z,60.00
2022-10-02T11:01:56.970Z,59.90
2022-10-02T11:07:16.469Z,60.40
2022-10-02T11:12:29.746Z,60.70
2022-10-02T11:17:49.197Z,61.40
2022-10-02T11:23:17.459Z,61.50
2022-10-02T11:28:50.123Z,61.50
2022-10-02T11:34:18.911Z,61.40
2022-10-02T11:39:51.068Z,60.80
2022-10-02T11:45:08.871Z,60.60
2022-10-02T11:50:52.765Z,60.30
2022-10-02T11:56:14.421Z,59.50
2022-10-02T12:01:25.418Z,59.30
2022-10-02T12:06:44.885Z,58.90
2022-10-02T12:11:58.988Z,58.60
2022-10-02T12:17:18.459Z,58.30
2022-10-02T12:22:49.084Z,58.10
2022-10-02T12:28:01.206Z,58.50
2022-10-02T12:33:32.961Z,58.50
2022-10-02T12:38:52.311Z,59.10
2022-10-02T12:44:17.287Z,59.10
2022-10-02T12:49:39.299Z,59.30
2022-10-02T12:55:14.857Z,59.10
2022-10-02T13:00:19.931Z,58.90
2022-10-02T13:06:03.632Z,58.70
2022-10-02T13:11:16.641Z,58.60
2022-10-02T13:16:29.662Z,58.30
2022-10-02T13:21:43.394Z,58.30
2022-10-02T13:26:56.427Z,58.10
2022-10-02T13:32:25.879Z,57.80
2022-10-02T13:37:39.917Z,58.10
2022-10-02T13:42:54.373Z,58.40
2022-10-02T13:48:05.738Z,58.40
2022-10-02T13:53:36.766Z,58.60
2022-10-02T13:58:58.437Z,58.90
2022-10-02T14:04:33.934Z,59.00
2022-10-02T14:09:50.277Z,58.60
2022-10-02T14:15:18.816Z,58.50
2022-10-02T14:20:35.621Z,58.60
2022-10-02T14:25:50.896Z,58.70
2022-10-02T14:31:14.836Z,59.00
2022-10-02T14:36:23.405Z,58.90
2022-10-02T14:41:51.722Z,58.60
2022-10-02T14:47:17.485Z,58.90
2022-10-02T14:52:33.139Z,58.30
2022-10-02T14:57:51.512Z,58.10
2022-10-02T15:03:19.955Z,58.00
2022-10-02T15:08:28.560Z,57.70
2022-10-02T15:13:39.818Z,57.40
2022-10-02T15:18:50.260Z,57.10
2022-10-02T15:23:56.632Z,56.70
2022-10-02T15:29:11.459Z,56.40
2022-10-02T15:34:24.010Z,55.90
2022-10-02T15:39:40.547Z,55.50
2022-10-02T15:45:11.065Z,55.00
2022-10-02T15:50:30.512Z,54.70
2022-10-02T15:55:41.340Z,54.40
2022-10-02T16:01:08.720Z,54.10
2022-10-02T16:06:22.162Z,54.10
2022-10-02T16:11:47.374Z,53.80
2022-10-02T16:17:07.113Z,53.60
2022-10-02T16:22:22.355Z,53.40
2022-10-02T16:27:48.323Z,53.20
2022-10-02T16:33:11.240Z,53.60
2022-10-02T16:38:19.551Z,53.00
2022-10-02T16:43:55.212Z,52.80
2022-10-02T16:49:04.816Z,52.90
2022-10-02T16:54:18.314Z,52.60
2022-10-02T16:59:26.488Z,52.90
2022-10-02T17:04:40.914Z,52.80
2022-10-02T17:09:53.180Z,52.70
2022-10-02T17:15:00.958Z,52.70
2022-10-02T17:20:18.819Z,52.40
2022-10-02T17:25:29.694Z,52.60
2022-10-02T17:30:52.214Z,52.40
2022-10-02T17:36:02.032Z,52.30
2022-10-02T17:41:18.476Z,52.80
2022-10-02T17:46:44.860Z,52.30
2022-10-02T17:51:57.009Z,52.10
2022-10-02T17:57:22.801Z,52.10
2022-10-02T18:02:43.006Z,52.00
2022-10-02T18:08:01.064Z,51.80
2022-10-02T18:13:26.020Z,52.00
2022-10-02T18:18:38.957Z,52.00
2022-10-02T18:24:14.106Z,51.70
2022-10-02T18:29:57.567Z,51.60
2022-10-02T18:35:22.109Z,51.70
2022-10-02T18:40:29.071Z,51.60
2022-10-02T18:45:45.030Z,51.70
2022-10-02T18:51:19.828Z,51.90
2022-10-02T18:56:40.430Z,52.00
2022-10-02T19:02:05.328Z,51.00
2022-10-02T19:07:13.010Z,51.60
2022-10-02T19:12:18.708Z,50.80
2022-10-02T19:17:26.955Z,50.30
2022-10-02T19:22:32.939Z,50.70
2022-10-02T19:27:38.223Z,50.20
2022-10-02T19:32:43.599Z,50.10
2022-10-02T19:37:50.395Z,50.00
2022-10-02T19:43:01.716Z,50.00
2022-10-02T19:48:08.070Z,50.00
2022-10-02T19:53:22.935Z,50.20
2022-10-02T19:58:33.241Z,50.50
2022-10-02T20:03:38.532Z,49.80
2022-10-02T20:08:45.814Z,49.80
2022-10-02T20:13:52.768Z,49.90
2022-10-02T20:18:57.199Z,50.00
2022-10-02T20:24:03.080Z,49.90
2022-10-02T20:29:12.835Z,50.20
2022-10-02T20:34:25.027Z,50.00
2022-10-02T20:39:32.678Z,49.80
2022-10-02T20:44:37.354Z,49.80
2022-10-02T20:50:12.402Z,49.80
2022-10-02T20:55:20.319Z,49.70
2022-10-02T21:00:25.063Z,49.80
2022-10-02T21:06:00.499Z,50.00
2022-10-02T21:11:20.357Z,50.00
2022-10-02T21:16:51.722Z,50.00
2022-10-02T21:22:34.184Z,50.10
2022-10-02T21:28:13.512Z,50.20
2022-10-02T21:33:22.031Z,50.30
2022-10-02T21:38:44.216Z,50.30
2022-10-02T21:44:16.413Z,50.30
2022-10-02T21:49:55.593Z,50.30
2022-10-02T21:55:31.248Z,50.50
2022-10-02T22:00:46.436Z,50.40
2022-10-02T22:06:29.227Z,50.60
2022-10-02T22:11:46.718Z,50.60
2022-10-02T22:16:56.197Z,50.60
2022-10-02T22:22:10.483Z,50.80
2022-10-02T22:27:49.558Z,50.80
2022-10-02T22:33:13.657Z,50.90
2022-10-02T22:38:22.061Z,50.90
2022-10-02T22:43:33.828Z,50.90
2022-10-02T22:48:41.108Z,51.00
2022-10-02T22:53:52.016Z,50.90
2022-10-02T22:59:03.258Z,51.00
2022-10-02T23:04:20.570Z,51.00
2022-10-02T23:09:28.957Z,51.10
2022-10-02T23:14:49.062Z,51.10
2022-10-02T23:19:58.679Z,51.20
2022-10-02T23:25:15.614Z,51.20
2022-10-02T23:30:22.512Z,51.30
2022-10-02T23:35:31.583Z,51.30
2022-10-02T23:40:55.272Z,51.40
2022-10-02T23:46:05.470Z,51.50
2022-10-02T23:51:18.126Z,51.50
2022-10-02T23:56:38.665Z,51.50
